ADDS METAR Data INFO
IDs: Format: Raw Decoded Include TAF

Data at: 0032 UTC 17 Dec 2017

KHYX 170015Z AUTO 07008KT 10SM OVC018 M04/M06 A3014 RMK AO2
KHYX 162355Z AUTO 06007KT 10SM OVC018 M04/M06 A3013 RMK AO2
KHYX 162335Z AUTO 06006KT 10SM OVC018 M04/M06 A3012 RMK AO2
KHYX 162315Z AUTO 05007KT 10SM OVC018 M04/M06 A3011 RMK AO2
KHYX 162255Z AUTO 05005KT 10SM OVC018 M04/M06 A3012 RMK AO2
KHYX 162236Z AUTO 05004KT 10SM OVC018 M04/M06 A3011 RMK AO2
KHYX 162215Z AUTO 04005KT 10SM SCT018 OVC027 M04/M06 A3009 RMK AO2
KHYX 162155Z AUTO 04005KT 10SM BKN020 OVC027 M04/M06 A3009 RMK AO2
KHYX 162136Z AUTO 04004KT 10SM SCT020 OVC029 M04/M06 A3008 RMK AO2
KHYX 162115Z AUTO 04003KT 10SM OVC027 M04/M06 A3007 RMK AO2
KHYX 162055Z AUTO 03004KT 10SM OVC029 M04/M06 A3005 RMK AO2
KHYX 162035Z AUTO 00000KT 10SM OVC029 M04/M06 A3005 RMK AO2
KHYX 162015Z AUTO 05004KT 10SM OVC027 M04/M06 A3004 RMK AO2
KHYX 161955Z AUTO 04007KT 10SM OVC027 M04/M06 A3002 RMK AO2
KHYX 161935Z AUTO 03007KT 10SM OVC027 M04/M06 A3002 RMK AO2
KHYX 161915Z AUTO 06005KT 10SM OVC027 M05/M06 A3002 RMK AO2
KHYX 161855Z AUTO 06004KT 10SM OVC027 M05/M06 A3002 RMK AO2
KHYX 161835Z AUTO 06003KT 10SM OVC027 M05/M06 A3001 RMK AO2
KHYX 161815Z AUTO 06003KT 10SM OVC029 M05/M06 A3001 RMK AO2
KHYX 161755Z AUTO 06004KT 10SM OVC029 M05/M06 A3001 RMK AO2
KHYX 161735Z AUTO 06005KT 10SM OVC029 M05/M06 A3001 RMK AO2
KHYX 161715Z AUTO 08005KT 10SM BKN029 OVC038 M05/M06 A3001 RMK AO2
KHYX 161655Z AUTO 07004KT 10SM SCT029 OVC038 M05/M06 A3001 RMK AO2
KHYX 161635Z AUTO 07004KT 10SM OVC040 M05/M06 A3001 RMK AO2
KHYX 161615Z AUTO 06003KT 2 1/2SM -SN OVC042 M05/M06 A3001 RMK AO2
KHYX 161555Z AUTO 08003KT 1 1/2SM -SN BKN012 BKN017 OVC042 M05/M06 A3001 RMK AO2
KHYX 161535Z AUTO 00000KT 1 3/4SM -SN OVC012 M05/M06 A3000 RMK AO2
KHYX 161515Z AUTO 00000KT 1 1/4SM -SN OVC012 M05/M06 A2999 RMK AO2
KHYX 161455Z AUTO 00000KT 1 1/4SM -SN OVC014 M05/M06 A2999 RMK AO2
KHYX 161435Z AUTO 00000KT 2SM -SN BKN018 BKN025 OVC034 M06/M06 A2998 RMK AO2
KHYX 161415Z AUTO 00000KT 2SM -SN OVC036 M06/M06 A2997 RMK AO2
KHYX 161355Z AUTO 00000KT 4SM -SN OVC036 M06/M06 A2996 RMK AO2
KHYX 161335Z AUTO 00000KT 5SM -SN OVC036 M06/M06 A2995 RMK AO2
KHYX 161315Z AUTO 00000KT 4SM -SN OVC036 M06/M06 A2994 RMK AO2
KHYX 161255Z AUTO 00000KT 2SM -SN BKN010 BKN021 OVC038 M06/M06 A2993 RMK AO2
KHYX 161235Z AUTO 00000KT 3SM -SN SCT012 SCT027 OVC038 M06/M06 A2993 RMK AO2
KHYX 161215Z AUTO 00000KT 4SM -SN OVC040 M06/M06 A2993 RMK AO2
KHYX 161155Z AUTO 00000KT 7SM -SN OVC044 M06/M06 A2991 RMK AO2
KHYX 161135Z AUTO 00000KT 3SM -SN SCT013 SCT018 OVC048 M06/M06 A2991 RMK AO2
KHYX 161115Z AUTO 00000KT 3SM -SN BKN010 OVC018 M05/M06 A2991 RMK AO2
KHYX 161055Z AUTO 36003KT 1 3/4SM -SN OVC010 M05/M06 A2991 RMK AO2
KHYX 161035Z AUTO 00000KT 2SM -SN OVC012 M05/M06 A2990 RMK AO2
KHYX 161015Z AUTO 00000KT 2SM -SN SCT007 OVC012 M05/M06 A2989 RMK AO2
KHYX 160955Z AUTO 00000KT 1 1/2SM -SN OVC010 M05/M06 A2988 RMK AO2
KHYX 160935Z AUTO 00000KT 1 1/2SM -SN OVC010 M05/M06 A2988 RMK AO2
KHYX 160915Z AUTO 00000KT 2SM -SN BKN008 BKN012 OVC017 M05/M06 A2988 RMK AO2
KHYX 160855Z AUTO 00000KT 3SM -SN SCT012 BKN018 OVC028 M05/M06 A2988 RMK AO2
KHYX 160835Z AUTO 00000KT 2 1/2SM -SN BKN012 OVC019 M05/M06 A2989 RMK AO2 VIS 1 3/4V4
KHYX 160815Z AUTO 23003KT 4SM -SN BKN019 OVC025 M05/M07 A2989 RMK AO2
KHYX 160755Z AUTO 22005KT 5SM -SN OVC025 M05/M07 A2988 RMK AO2
KHYX 160735Z AUTO 23005KT 10SM OVC025 M05/M07 A2988 RMK AO2
KHYX 160715Z AUTO 22006KT 10SM OVC025 M05/M08 A2987 RMK AO2
KHYX 160655Z AUTO 22007KT 10SM OVC027 M05/M08 A2987 RMK AO2
KHYX 160635Z AUTO 22005KT 10SM OVC029 M05/M08 A2987 RMK AO2
KHYX 160615Z AUTO 23004KT 10SM OVC031 M05/M08 A2987 RMK AO2
KHYX 160555Z AUTO 24004KT 10SM OVC031 M06/M08 A2987 RMK AO2
KHYX 160535Z AUTO 23005KT 10SM OVC031 M06/M08 A2986 RMK AO2
KHYX 160515Z AUTO 22005KT 10SM OVC033 M06/M08 A2987 RMK AO2
KHYX 160455Z AUTO 22007KT 10SM BKN035 OVC100 M06/M08 A2987 RMK AO2
KHYX 160435Z AUTO 21004KT 10SM BKN037 OVC100 M06/M08 A2987 RMK AO2
KHYX 160415Z AUTO 22004KT 10SM SCT035 BKN042 OVC110 M07/M08 A2987 RMK AO2
KHYX 160355Z AUTO 24003KT 10SM SCT044 OVC110 M06/M08 A2986 RMK AO2
KHYX 160335Z AUTO 25004KT 10SM OVC100 M06/M08 A2987 RMK AO2
KHYX 160315Z AUTO 25005KT 10SM BKN110 M06/M08 A2987 RMK AO2
KHYX 160255Z AUTO 27008KT 10SM SCT040 SCT110 M06/M08 A2987 RMK AO2
KHYX 160235Z AUTO 25007KT 10SM -SN OVC042 M05/M07 A2987 RMK AO2
KHYX 160215Z AUTO 25005KT 10SM SCT019 OVC044 M05/M07 A2986 RMK AO2
KHYX 160155Z AUTO 25006KT 10SM SCT019 SCT025 OVC044 M05/M07 A2986 RMK AO2
KHYX 160135Z AUTO 24005KT 10SM SCT038 OVC044 M05/M08 A2985 RMK AO2
KHYX 160115Z AUTO 24008KT 10SM -SN SCT031 OVC046 M05/M08 A2985 RMK AO2
KHYX 160055Z AUTO 25008KT 10SM OVC048 M05/M08 A2984 RMK AO2
KHYX 160035Z AUTO 24008KT 10SM OVC050 M05/M09 A2984 RMK AO2
KHYX 160015Z AUTO 25010KT 10SM OVC050 M05/M09 A2984 RMK AO2
KHYX 152355Z AUTO 25008KT 10SM OVC050 M05/M10 A2983 RMK AO2
KHYX 152335Z AUTO 26011KT 10SM OVC050 M05/M10 A2982 RMK AO2
KHYX 152315Z AUTO 27010KT 10SM OVC048 M04/M10 A2982 RMK AO2
KHYX 152255Z AUTO 27014G20KT 10SM OVC048 M05/M10 A2981 RMK AO2
KHYX 152235Z AUTO 27016G23KT 10SM OVC048 M05/M10 A2980 RMK AO2
KHYX 152215Z AUTO 26016G20KT 10SM OVC046 M04/M10 A2980 RMK AO2
KHYX 152156Z AUTO 27012KT 10SM OVC044 M04/M10 A2979 RMK AO2
KHYX 152135Z AUTO 27012KT 10SM OVC044 M04/M09 A2978 RMK AO2
KHYX 152115Z AUTO 27012KT 10SM OVC048 M04/M09 A2978 RMK AO2
KHYX 152055Z AUTO 28013G18KT 10SM BKN050 M04/M09 A2977 RMK AO2
KHYX 152035Z AUTO 27012G21KT 10SM BKN050 M04/M08 A2977 RMK AO2
KHYX 152015Z AUTO 26017G21KT 7SM SCT060 OVC065 M04/M08 A2976 RMK AO2
KHYX 151955Z AUTO 27017G20KT 7SM SCT038 SCT046 OVC070 M04/M08 A2976 RMK AO2
KHYX 151935Z AUTO 26016KT 10SM SCT023 BKN038 OVC070 M04/M07 A2975 RMK AO2
KHYX 151915Z AUTO 26012G16KT 5SM -SN SCT020 SCT027 OVC038 M03/M07 A2975 RMK AO2
KHYX 151855Z AUTO 25012G18KT 7SM SCT020 SCT026 OVC042 M03/M07 A2975 RMK AO2
KHYX 151835Z AUTO 25014KT 5SM -SN BKN020 BKN026 OVC044 M03/M07 A2974 RMK AO2
KHYX 151815Z AUTO 25012G17KT 7SM SCT020 BKN044 OVC080 M03/M07 A2974 RMK AO2
KHYX 151755Z AUTO 25013G17KT 7SM SCT018 BKN041 OVC080 M04/M07 A2974 RMK AO2
KHYX 151735Z AUTO 23011KT 10SM SCT023 SCT038 BKN060 M04/M07 A2974 RMK AO2
KHYX 151715Z AUTO 24013KT 4SM -SN SCT011 BKN041 OVC060 M05/M07 A2975 RMK AO2
KHYX 151655Z AUTO 22009KT 5SM -SN BKN013 BKN025 OVC085 M05/M07 A2976 RMK AO2
KHYX 151635Z AUTO 22013KT 2 1/2SM -SN SCT009 OVC014 M05/M07 A2976 RMK AO2
KHYX 151615Z AUTO 22014G19KT 1 3/4SM -SN SCT006 BKN010 OVC014 M06/M07 A2977 RMK AO2
KHYX 151555Z AUTO 22012KT 3/4SM -SN OVC006 M06/M07 A2978 RMK AO2
KHYX 151535Z AUTO 21013KT 3/4SM -SN OVC006 M06/M07 A2978 RMK AO2
KHYX 151515Z AUTO 20011KT 1SM -SN OVC008 M06/M07 A2978 RMK AO2
KHYX 151455Z AUTO 20012KT 1SM -SN OVC008 M06/M07 RMK AO2
KHYX 151435Z AUTO 20013KT 1SM -SN OVC008 M06/M08 A2979 RMK AO2
KHYX 151415Z AUTO 19011KT 1 3/4SM -SN OVC012 M06/M08 A2980 RMK AO2
KHYX 151355Z AUTO 19011KT 3SM -SN OVC018 M06/M08 A2981 RMK AO2
KHYX 151335Z AUTO 18009KT 4SM -SN OVC018 M06/M08 A2981 RMK AO2
KHYX 151316Z AUTO 18008KT 5SM -SN BKN018 BKN030 OVC038 M06/M08 A2982 RMK AO2
KHYX 151255Z AUTO 19009KT 7SM -SN OVC040 M06/M08 A2984 RMK AO2
KHYX 151235Z AUTO 19008KT 10SM -SN SCT026 BKN042 OVC050 M07/M08 A2984 RMK AO2